sensor_id;sensor_type;location;lat;lon;timestamp;temperature;humidity
13369;DHT22;6753;52.520;13.450;2023-04-07T00:00:09;21.90;54.20
13369;DHT22;6753;52.520;13.450;2023-04-07T00:00:20;19.50;50.80
13369;DHT22;6753;52.520;13.450;2023-04-07T00:00:32;19.50;50.90
13369;DHT22;6753;52.520;13.450;2023-04-07T00:00:42;19.40;50.90
13369;DHT22;6753;52.520;13.450;2023-04-07T00:00:53;19.60;51.00
13369;DHT22;6753;52.520;13.450;2023-04-07T00:01:04;21.30;53.50
13369;DHT22;6753;52.520;13.450;2023-04-07T00:01:15;19.50;50.80
13369;DHT22;6753;52.520;13.450;2023-04-07T00:01:26;19.60;51.00
13369;DHT22;6753;52.520;13.450;2023-04-07T00:01:36;19.50;50.80
13369;DHT22;6753;52.520;13.450;2023-04-07T00:01:48;22.20;54.80
13369;DHT22;6753;52.520;13.450;2023-04-07T00:01:59;19.50;50.80
13369;DHT22;6753;52.520;13.450;2023-04-07T00:02:10;21.80;54.10
13369;DHT22;6753;52.520;13.450;2023-04-07T00:02:21;19.60;50.70
13369;DHT22;6753;52.520;13.450;2023-04-07T00:02:32;19.50;50.70
13369;DHT22;6753;52.520;13.450;2023-04-07T00:02:43;20.30;51.80
13369;DHT22;6753;52.520;13.450;2023-04-07T00:02:54;20.50;52.10
13369;DHT22;6753;52.520;13.450;2023-04-07T00:03:05;19.50;50.80
13369;DHT22;6753;52.520;13.450;2023-04-07T00:03:18;19.60;50.90
13369;DHT22;6753;52.520;13.450;2023-04-07T00:03:28;19.60;50.70
13369;DHT22;6753;52.520;13.450;2023-04-07T00:03:39;19.50;50.70
13369;DHT22;6753;52.520;13.450;2023-04-07T00:03:50;19.60;50.80
13369;DHT22;6753;52.520;13.450;2023-04-07T00:04:01;19.50;50.60
13369;DHT22;6753;52.520;13.450;2023-04-07T00:04:12;21.00;52.70
13369;DHT22;6753;52.520;13.450;2023-04-07T00:04:23;20.50;52.60
13369;DHT22;6753;52.520;13.450;2023-04-07T00:04:33;19.50;50.70
13369;DHT22;6753;52.520;13.450;2023-04-07T00:04:45;19.50;50.70
13369;DHT22;6753;52.520;13.450;2023-04-07T00:04:56;19.50;50.40
13369;DHT22;6753;52.520;13.450;2023-04-07T00:05:07;21.50;53.40
13369;DHT22;6753;52.520;13.450;2023-04-07T00:05:18;19.50;50.60
13369;DHT22;6753;52.520;13.450;2023-04-07T00:05:29;21.10;52.80
13369;DHT22;6753;52.520;13.450;2023-04-07T00:05:40;21.10;52.80
13369;DHT22;6753;52.520;13.450;2023-04-07T00:05:50;19.60;50.70
13369;DHT22;6753;52.520;13.450;2023-04-07T00:06:01;19.60;50.80
13369;DHT22;6753;52.520;13.450;2023-04-07T00:06:13;19.50;50.60
13369;DHT22;6753;52.520;13.450;2023-04-07T00:06:24;19.50;50.20
13369;DHT22;6753;52.520;13.450;2023-04-07T00:06:35;19.40;50.10
13369;DHT22;6753;52.520;13.450;2023-04-07T00:06:45;19.50;50.50
13369;DHT22;6753;52.520;13.450;2023-04-07T00:06:56;18.20;48.70
13369;DHT22;6753;52.520;13.450;2023-04-07T00:07:07;20.40;51.90
13369;DHT22;6753;52.520;13.450;2023-04-07T00:07:18;19.50;50.80
13369;DHT22;6753;52.520;13.450;2023-04-07T00:07:29;19.50;50.90
13369;DHT22;6753;52.520;13.450;2023-04-07T00:07:40;19.50;50.90
13369;DHT22;6753;52.520;13.450;2023-04-07T00:07:51;19.50;51.10
13369;DHT22;6753;52.520;13.450;2023-04-07T00:08:02;19.50;51.00
13369;DHT22;6753;52.520;13.450;2023-04-07T00:08:12;20.70;52.60
13369;DHT22;6753;52.520;13.450;2023-04-07T00:08:24;19.40;50.50
13369;DHT22;6753;52.520;13.450;2023-04-07T00:08:35;19.50;51.30
13369;DHT22;6753;52.520;13.450;2023-04-07T00:08:46;20.30;52.50
13369;DHT22;6753;52.520;13.450;2023-04-07T00:08:56;19.50;51.30
13369;DHT22;6753;52.520;13.450;2023-04-07T00:09:07;20.90;53.20
13369;DHT22;6753;52.520;13.450;2023-04-07T00:09:18;19.50;51.10
13369;DHT22;6753;52.520;13.450;2023-04-07T00:09:29;19.50;51.10
13369;DHT22;6753;52.520;13.450;2023-04-07T00:09:40;18.10;49.10
13369;DHT22;6753;52.520;13.450;2023-04-07T00:09:51;20.90;52.80
13369;DHT22;6753;52.520;13.450;2023-04-07T00:10:02;19.50;50.80
13369;DHT22;6753;52.520;13.450;2023-04-07T00:10:13;19.50;50.80
13369;DHT22;6753;52.520;13.450;2023-04-07T00:10:24;20.20;52.50
13369;DHT22;6753;52.520;13.450;2023-04-07T00:10:35;19.50;51.00
13369;DHT22;6753;52.520;13.450;2023-04-07T00:10:46;17.80;48.60
13369;DHT22;6753;52.520;13.450;2023-04-07T00:10:56;19.40;51.10
13369;DHT22;6753;52.520;13.450;2023-04-07T00:11:08;19.50;51.30
13369;DHT22;6753;52.520;13.450;2023-04-07T00:11:19;20.10;52.00
13369;DHT22;6753;52.520;13.450;2023-04-07T00:11:30;19.50;51.10
13369;DHT22;6753;52.520;13.450;2023-04-07T00:11:41;19.40;50.60
13369;DHT22;6753;52.520;13.450;2023-04-07T00:11:51;19.50;50.70
13369;DHT22;6753;52.520;13.450;2023-04-07T00:12:02;19.50;50.70
13369;DHT22;6753;52.520;13.450;2023-04-07T00:12:13;19.50;50.60
13369;DHT22;6753;52.520;13.450;2023-04-07T00:12:24;19.50;50.50
13369;DHT22;6753;52.520;13.450;2023-04-07T00:12:34;20.60;52.20
13369;DHT22;6753;52.520;13.450;2023-04-07T00:12:45;19.90;51.20
13369;DHT22;6753;52.520;13.450;2023-04-07T00:12:57;19.50;50.70
13369;DHT22;6753;52.520;13.450;2023-04-07T00:13:08;21.20;53.20
13369;DHT22;6753;52.520;13.450;2023-04-07T00:13:19;19.50;50.90
13369;DHT22;6753;52.520;13.450;2023-04-07T00:13:29;20.40;52.30
13369;DHT22;6753;52.520;13.450;2023-04-07T00:13:40;19.50;51.10
13369;DHT22;6753;52.520;13.450;2023-04-07T00:13:51;19.90;51.60
13369;DHT22;6753;52.520;13.450;2023-04-07T00:14:02;19.50;50.90
13369;DHT22;6753;52.520;13.450;2023-04-07T00:14:13;21.20;53.20
13369;DHT22;6753;52.520;13.450;2023-04-07T00:14:24;20.60;52.30
13369;DHT22;6753;52.520;13.450;2023-04-07T00:14:35;19.50;50.90
13369;DHT22;6753;52.520;13.450;2023-04-07T00:14:47;19.60;51.00
13369;DHT22;6753;52.520;13.450;2023-04-07T00:14:58;19.50;50.90
13369;DHT22;6753;52.520;13.450;2023-04-07T00:15:09;19.50;50.80
13369;DHT22;6753;52.520;13.450;2023-04-07T00:15:20;19.50;51.10
13369;DHT22;6753;52.520;13.450;2023-04-07T00:15:30;19.50;51.10
13369;DHT22;6753;52.520;13.450;2023-04-07T00:15:41;19.50;51.00
13369;DHT22;6753;52.520;13.450;2023-04-07T00:15:53;19.50;51.00
13369;DHT22;6753;52.520;13.450;2023-04-07T00:16:05;20.90;53.10
13369;DHT22;6753;52.520;13.450;2023-04-07T00:16:15;19.50;51.00
13369;DHT22;6753;52.520;13.450;2023-04-07T00:16:27;19.50;50.90
13369;DHT22;6753;52.520;13.450;2023-04-07T00:16:37;19.50;50.80
13369;DHT22;6753;52.520;13.450;2023-04-07T00:16:48;19.40;50.60
13369;DHT22;6753;52.520;13.450;2023-04-07T00:16:59;19.50;50.70
13369;DHT22;6753;52.520;13.450;2023-04-07T00:17:10;21.10;53.10
13369;DHT22;6753;52.520;13.450;2023-04-07T00:17:20;19.60;50.90
13369;DHT22;6753;52.520;13.450;2023-04-07T00:17:31;19.60;51.10
13369;DHT22;6753;52.520;13.450;2023-04-07T00:17:43;19.50;51.00
13369;DHT22;6753;52.520;13.450;2023-04-07T00:17:54;19.50;51.10
13369;DHT22;6753;52.520;13.450;2023-04-07T00:18:05;20.60;52.90
13369;DHT22;6753;52.520;13.450;2023-04-07T00:18:16;19.60;50.90
13369;DHT22;6753;52.520;13.450;2023-04-07T00:18:27;19.50;50.80
13369;DHT22;6753;52.520;13.450;2023-04-07T00:18:37;19.50;50.90
13369;DHT22;6753;52.520;13.450;2023-04-07T00:18:48;21.10;53.40
13369;DHT22;6753;52.520;13.450;2023-04-07T00:19:00;19.50;51.10
13369;DHT22;6753;52.520;13.450;2023-04-07T00:19:11;19.50;50.90
13369;DHT22;6753;52.520;13.450;2023-04-07T00:19:21;19.50;50.90
13369;DHT22;6753;52.520;13.450;2023-04-07T00:19:32;19.50;51.00
13369;DHT22;6753;52.520;13.450;2023-04-07T00:19:43;19.50;51.20
13369;DHT22;6753;52.520;13.450;2023-04-07T00:19:54;21.90;54.40
13369;DHT22;6753;52.520;13.450;2023-04-07T00:20:05;19.60;51.30
13369;DHT22;6753;52.520;13.450;2023-04-07T00:20:17;19.50;51.20
13369;DHT22;6753;52.520;13.450;2023-04-07T00:20:28;19.50;51.20
13369;DHT22;6753;52.520;13.450;2023-04-07T00:20:39;21.00;53.20
13369;DHT22;6753;52.520;13.450;2023-04-07T00:20:50;21.00;53.20
13369;DHT22;6753;52.520;13.450;2023-04-07T00:21:01;19.80;51.40
13369;DHT22;6753;52.520;13.450;2023-04-07T00:21:12;19.50;51.10
13369;DHT22;6753;52.520;13.450;2023-04-07T00:21:22;19.50;51.00
13369;DHT22;6753;52.520;13.450;2023-04-07T00:21:33;19.50;51.00
13369;DHT22;6753;52.520;13.450;2023-04-07T00:21:44;22.20;54.70
13369;DHT22;6753;52.520;13.450;2023-04-07T00:21:55;19.50;50.80
13369;DHT22;6753;52.520;13.450;2023-04-07T00:22:07;19.50;50.70
13369;DHT22;6753;52.520;13.450;2023-04-07T00:22:17;20.70;52.70
13369;DHT22;6753;52.520;13.450;2023-04-07T00:22:28;19.50;51.00
13369;DHT22;6753;52.520;13.450;2023-04-07T00:22:39;20.20;52.10
13369;DHT22;6753;52.520;13.450;2023-04-07T00:22:49;16.60;46.90
13369;DHT22;6753;52.520;13.450;2023-04-07T00:23:00;19.50;51.00
13369;DHT22;6753;52.520;13.450;2023-04-07T00:23:11;19.50;51.00
13369;DHT22;6753;52.520;13.450;2023-04-07T00:23:22;19.50;51.10
13369;DHT22;6753;52.520;13.450;2023-04-07T00:23:33;19.60;51.30
13369;DHT22;6753;52.520;13.450;2023-04-07T00:23:44;20.40;52.40
13369;DHT22;6753;52.520;13.450;2023-04-07T00:23:56;19.50;51.10
13369;DHT22;6753;52.520;13.450;2023-04-07T00:24:07;19.50;51.00
13369;DHT22;6753;52.520;13.450;2023-04-07T00:24:18;19.50;51.10
13369;DHT22;6753;52.520;13.450;2023-04-07T00:24:29;20.50;52.50
13369;DHT22;6753;52.520;13.450;2023-04-07T00:24:40;19.50;50.90
13369;DHT22;6753;52.520;13.450;2023-04-07T00:24:50;22.00;54.60
13369;DHT22;6753;52.520;13.450;2023-04-07T00:25:02;19.50;51.00
13369;DHT22;6753;52.520;13.450;2023-04-07T00:25:13;19.50;51.10
13369;DHT22;6753;52.520;13.450;2023-04-07T00:25:24;19.50;51.00
13369;DHT22;6753;52.520;13.450;2023-04-07T00:25:35;19.50;51.00
13369;DHT22;6753;52.520;13.450;2023-04-07T00:25:47;19.50;51.00
13369;DHT22;6753;52.520;13.450;2023-04-07T00:25:58;19.50;50.90
13369;DHT22;6753;52.520;13.450;2023-04-07T00:26:09;19.50;51.00
13369;DHT22;6753;52.520;13.450;2023-04-07T00:26:19;19.50;51.10
13369;DHT22;6753;52.520;13.450;2023-04-07T00:26:31;20.30;52.20
13369;DHT22;6753;52.520;13.450;2023-04-07T00:26:42;22.00;54.60
13369;DHT22;6753;52.520;13.450;2023-04-07T00:26:53;20.10;51.90
13369;DHT22;6753;52.520;13.450;2023-04-07T00:27:03;19.50;51.00
13369;DHT22;6753;52.520;13.450;2023-04-07T00:27:15;22.30;55.20
13369;DHT22;6753;52.520;13.450;2023-04-07T00:27:25;19.60;51.30
13369;DHT22;6753;52.520;13.450;2023-04-07T00:27:36;19.60;51.30
13369;DHT22;6753;52.520;13.450;2023-04-07T00:27:47;19.60;51.20
13369;DHT22;6753;52.520;13.450;2023-04-07T00:27:58;19.60;51.10
13369;DHT22;6753;52.520;13.450;2023-04-07T00:28:08;21.00;53.00
13369;DHT22;6753;52.520;13.450;2023-04-07T00:28:20;20.50;52.00
13369;DHT22;6753;52.520;13.450;2023-04-07T00:28:31;19.60;50.20
13369;DHT22;6753;52.520;13.450;2023-04-07T00:28:41;19.60;49.90
13369;DHT22;6753;52.520;13.450;2023-04-07T00:28:52;19.60;49.30
13369;DHT22;6753;52.520;13.450;2023-04-07T00:29:03;21.00;51.00
13369;DHT22;6753;52.520;13.450;2023-04-07T00:29:14;22.20;52.60
13369;DHT22;6753;52.520;13.450;2023-04-07T00:29:24;19.50;48.20
13369;DHT22;6753;52.520;13.450;2023-04-07T00:29:35;19.50;47.90
13369;DHT22;6753;52.520;13.450;2023-04-07T00:29:47;19.50;47.60
13369;DHT22;6753;52.520;13.450;2023-04-07T00:29:58;22.00;51.20
13369;DHT22;6753;52.520;13.450;2023-04-07T00:30:10;19.40;47.20
13369;DHT22;6753;52.520;13.450;2023-04-07T00:30:21;19.40;47.00
13369;DHT22;6753;52.520;13.450;2023-04-07T00:30:31;19.40;46.90
13369;DHT22;6753;52.520;13.450;2023-04-07T00:30:42;20.50;48.70
13369;DHT22;6753;52.520;13.450;2023-04-07T00:30:53;19.30;46.50
13369;DHT22;6753;52.520;13.450;2023-04-07T00:31:04;19.30;46.20
13369;DHT22;6753;52.520;13.450;2023-04-07T00:31:14;19.30;46.10
13369;DHT22;6753;52.520;13.450;2023-04-07T00:31:25;19.20;46.00
13369;DHT22;6753;52.520;13.450;2023-04-07T00:31:37;19.20;45.80
13369;DHT22;6753;52.520;13.450;2023-04-07T00:31:48;19.20;45.70
13369;DHT22;6753;52.520;13.450;2023-04-07T00:31:58;19.20;45.50
13369;DHT22;6753;52.520;13.450;2023-04-07T00:32:09;19.10;45.20
13369;DHT22;6753;52.520;13.450;2023-04-07T00:32:23;19.20;45.30
13369;DHT22;6753;52.520;13.450;2023-04-07T00:32:34;19.10;45.10
13369;DHT22;6753;52.520;13.450;2023-04-07T00:32:44;19.10;44.80
13369;DHT22;6753;52.520;13.450;2023-04-07T00:32:55;19.10;44.70
13369;DHT22;6753;52.520;13.450;2023-04-07T00:33:06;19.10;44.70
13369;DHT22;6753;52.520;13.450;2023-04-07T00:33:18;19.00;44.60
13369;DHT22;6753;52.520;13.450;2023-04-07T00:33:28;19.00;44.50
13369;DHT22;6753;52.520;13.450;2023-04-07T00:33:40;21.70;48.20
13369;DHT22;6753;52.520;13.450;2023-04-07T00:33:50;19.00;44.00
13369;DHT22;6753;52.520;13.450;2023-04-07T00:34:01;18.90;43.80
13369;DHT22;6753;52.520;13.450;2023-04-07T00:34:12;18.90;43.80
13369;DHT22;6753;52.520;13.450;2023-04-07T00:34:23;18.90;43.80
13369;DHT22;6753;52.520;13.450;2023-04-07T00:34:33;18.90;43.60
13369;DHT22;6753;52.520;13.450;2023-04-07T00:34:44;19.50;44.60
13369;DHT22;6753;52.520;13.450;2023-04-07T00:34:55;18.90;43.60
13369;DHT22;6753;52.520;13.450;2023-04-07T00:35:07;18.90;43.50
13369;DHT22;6753;52.520;13.450;2023-04-07T00:35:19;18.80;43.60
13369;DHT22;6753;52.520;13.450;2023-04-07T00:35:29;18.80;43.40
13369;DHT22;6753;52.520;13.450;2023-04-07T00:35:40;18.80;43.30
13369;DHT22;6753;52.520;13.450;2023-04-07T00:35:51;18.80;43.30
13369;DHT22;6753;52.520;13.450;2023-04-07T00:36:04;19.30;43.90
13369;DHT22;6753;52.520;13.450;2023-04-07T00:36:15;18.70;43.30
13369;DHT22;6753;52.520;13.450;2023-04-07T00:36:26;18.70;43.20
13369;DHT22;6753;52.520;13.450;2023-04-07T00:36:38;18.70;42.90
13369;DHT22;6753;52.520;13.450;2023-04-07T00:36:48;18.70;42.80
13369;DHT22;6753;52.520;13.450;2023-04-07T00:37:01;18.70;42.70
13369;DHT22;6753;52.520;13.450;2023-04-07T00:37:12;19.50;43.90
13369;DHT22;6753;52.520;13.450;2023-04-07T00:37:23;18.60;42.50
13369;DHT22;6753;52.520;13.450;2023-04-07T00:37:35;18.60;42.50
13369;DHT22;6753;52.520;13.450;2023-04-07T00:37:47;18.60;42.40
13369;DHT22;6753;52.520;13.450;2023-04-07T00:37:59;18.60;42.40
13369;DHT22;6753;52.520;13.450;2023-04-07T00:38:09;18.50;42.50
13369;DHT22;6753;52.520;13.450;2023-04-07T00:38:20;20.00;44.40
13369;DHT22;6753;52.520;13.450;2023-04-07T00:38:31;21.10;45.80
13369;DHT22;6753;52.520;13.450;2023-04-07T00:38:42;18.50;41.90
13369;DHT22;6753;52.520;13.450;2023-04-07T00:38:53;19.70;43.60
13369;DHT22;6753;52.520;13.450;2023-04-07T00:39:03;18.50;42.10
13369;DHT22;6753;52.520;13.450;2023-04-07T00:39:14;18.40;41.90
13369;DHT22;6753;52.520;13.450;2023-04-07T00:39:26;18.40;41.80
13369;DHT22;6753;52.520;13.450;2023-04-07T00:39:37;18.50;42.10
13369;DHT22;6753;52.520;13.450;2023-04-07T00:39:47;18.40;41.80
13369;DHT22;6753;52.520;13.450;2023-04-07T00:39:58;18.40;42.00
13369;DHT22;6753;52.520;13.450;2023-04-07T00:40:09;18.40;41.60
13369;DHT22;6753;52.520;13.450;2023-04-07T00:40:20;18.40;41.70
13369;DHT22;6753;52.520;13.450;2023-04-07T00:40:31;18.40;41.60
13369;DHT22;6753;52.520;13.450;2023-04-07T00:40:43;18.40;41.70
13369;DHT22;6753;52.520;13.450;2023-04-07T00:40:59;18.40;41.70
13369;DHT22;6753;52.520;13.450;2023-04-07T00:41:10;18.10;41.10
13369;DHT22;6753;52.520;13.450;2023-04-07T00:41:21;18.30;41.40
13369;DHT22;6753;52.520;13.450;2023-04-07T00:41:33;18.50;41.70
13369;DHT22;6753;52.520;13.450;2023-04-07T00:41:44;18.30;41.50
13369;DHT22;6753;52.520;13.450;2023-04-07T00:41:56;18.30;41.40
13369;DHT22;6753;52.520;13.450;2023-04-07T00:42:07;20.90;45.40
13369;DHT22;6753;52.520;13.450;2023-04-07T00:42:18;18.30;42.10
13369;DHT22;6753;52.520;13.450;2023-04-07T00:42:29;18.30;42.40
13369;DHT22;6753;52.520;13.450;2023-04-07T00:42:40;20.10;45.10
13369;DHT22;6753;52.520;13.450;2023-04-07T00:42:51;20.20;45.30
13369;DHT22;6753;52.520;13.450;2023-04-07T00:43:02;18.30;42.60
13369;DHT22;6753;52.520;13.450;2023-04-07T00:43:12;18.40;42.60
13369;DHT22;6753;52.520;13.450;2023-04-07T00:43:23;18.40;42.70
13369;DHT22;6753;52.520;13.450;2023-04-07T00:43:35;18.40;42.60
13369;DHT22;6753;52.520;13.450;2023-04-07T00:43:46;21.00;46.60
13369;DHT22;6753;52.520;13.450;2023-04-07T00:43:59;18.40;43.20
13369;DHT22;6753;52.520;13.450;2023-04-07T00:44:10;18.40;43.30
13369;DHT22;6753;52.520;13.450;2023-04-07T00:44:20;18.40;43.50
13369;DHT22;6753;52.520;13.450;2023-04-07T00:44:31;21.10;47.50
13369;DHT22;6753;52.520;13.450;2023-04-07T00:44:42;21.00;47.60
13369;DHT22;6753;52.520;13.450;2023-04-07T00:44:54;18.40;43.90
13369;DHT22;6753;52.520;13.450;2023-04-07T00:45:06;18.40;43.90
13369;DHT22;6753;52.520;13.450;2023-04-07T00:45:17;18.40;43.90
13369;DHT22;6753;52.520;13.450;2023-04-07T00:45:29;18.40;43.80
13369;DHT22;6753;52.520;13.450;2023-04-07T00:45:40;18.40;43.90
13369;DHT22;6753;52.520;13.450;2023-04-07T00:45:52;18.40;43.90
13369;DHT22;6753;52.520;13.450;2023-04-07T00:46:03;18.40;44.20
13369;DHT22;6753;52.520;13.450;2023-04-07T00:46:13;18.40;44.60
13369;DHT22;6753;52.520;13.450;2023-04-07T00:46:24;18.50;45.00
13369;DHT22;6753;52.520;13.450;2023-04-07T00:46:36;18.50;45.20
13369;DHT22;6753;52.520;13.450;2023-04-07T00:46:47;18.50;44.90
13369;DHT22;6753;52.520;13.450;2023-04-07T00:46:58;19.80;46.90
13369;DHT22;6753;52.520;13.450;2023-04-07T00:47:09;18.50;44.90
13369;DHT22;6753;52.520;13.450;2023-04-07T00:47:20;18.50;44.90
13369;DHT22;6753;52.520;13.450;2023-04-07T00:47:31;18.50;44.50
13369;DHT22;6753;52.520;13.450;2023-04-07T00:47:42;18.50;44.70
13369;DHT22;6753;52.520;13.450;2023-04-07T00:47:55;18.50;44.70
13369;DHT22;6753;52.520;13.450;2023-04-07T00:48:06;18.50;44.70
13369;DHT22;6753;52.520;13.450;2023-04-07T00:48:17;18.50;44.60
13369;DHT22;6753;52.520;13.450;2023-04-07T00:48:28;18.60;44.60
13369;DHT22;6753;52.520;13.450;2023-04-07T00:48:39;18.60;44.50
13369;DHT22;6753;52.520;13.450;2023-04-07T00:48:49;18.60;44.50
13369;DHT22;6753;52.520;13.450;2023-04-07T00:49:00;18.50;44.20
13369;DHT22;6753;52.520;13.450;2023-04-07T00:49:12;18.60;44.30
13369;DHT22;6753;52.520;13.450;2023-04-07T00:49:23;18.60;44.60
13369;DHT22;6753;52.520;13.450;2023-04-07T00:49:36;18.60;44.80
13369;DHT22;6753;52.520;13.450;2023-04-07T00:49:50;18.60;45.00
13369;DHT22;6753;52.520;13.450;2023-04-07T00:50:03;18.60;45.10
13369;DHT22;6753;52.520;13.450;2023-04-07T00:50:14;18.60;45.10
13369;DHT22;6753;52.520;13.450;2023-04-07T00:50:25;18.70;45.20
13369;DHT22;6753;52.520;13.450;2023-04-07T00:50:36;20.00;47.00
13369;DHT22;6753;52.520;13.450;2023-04-07T00:50:47;18.70;45.00
13369;DHT22;6753;52.520;13.450;2023-04-07T00:50:58;18.60;44.80
13369;DHT22;6753;52.520;13.450;2023-04-07T00:51:09;18.70;45.00
13369;DHT22;6753;52.520;13.450;2023-04-07T00:51:20;18.70;45.10
13369;DHT22;6753;52.520;13.450;2023-04-07T00:51:32;18.70;45.10
13369;DHT22;6753;52.520;13.450;2023-04-07T00:51:44;18.70;44.90
13369;DHT22;6753;52.520;13.450;2023-04-07T00:51:56;19.10;45.40
13369;DHT22;6753;52.520;13.450;2023-04-07T00:52:07;18.70;44.90
13369;DHT22;6753;52.520;13.450;2023-04-07T00:52:23;18.70;45.00
13369;DHT22;6753;52.520;13.450;2023-04-07T00:52:39;18.70;45.00
13369;DHT22;6753;52.520;13.450;2023-04-07T00:52:50;20.30;47.30
13369;DHT22;6753;52.520;13.450;2023-04-07T00:53:03;18.70;45.00
13369;DHT22;6753;52.520;13.450;2023-04-07T00:53:14;19.70;46.40
13369;DHT22;6753;52.520;13.450;2023-04-07T00:53:25;21.20;48.50
13369;DHT22;6753;52.520;13.450;2023-04-07T00:53:36;18.70;44.90
13369;DHT22;6753;52.520;13.450;2023-04-07T00:53:47;18.80;44.90
13369;DHT22;6753;52.520;13.450;2023-04-07T00:53:59;18.80;45.00
13369;DHT22;6753;52.520;13.450;2023-04-07T00:54:11;18.70;44.80
13369;DHT22;6753;52.520;13.450;2023-04-07T00:54:22;20.30;47.20
13369;DHT22;6753;52.520;13.450;2023-04-07T00:54:33;18.80;44.90
13369;DHT22;6753;52.520;13.450;2023-04-07T00:54:45;18.80;44.70
13369;DHT22;6753;52.520;13.450;2023-04-07T00:54:57;18.80;44.70
13369;DHT22;6753;52.520;13.450;2023-04-07T00:55:08;18.80;44.80
13369;DHT22;6753;52.520;13.450;2023-04-07T00:55:19;18.80;44.80
13369;DHT22;6753;52.520;13.450;2023-04-07T00:55:30;18.80;44.70
13369;DHT22;6753;52.520;13.450;2023-04-07T00:55:42;18.80;44.90
13369;DHT22;6753;52.520;13.450;2023-04-07T00:55:53;18.80;44.90
13369;DHT22;6753;52.520;13.450;2023-04-07T00:56:04;18.80;44.80
13369;DHT22;6753;52.520;13.450;2023-04-07T00:56:15;18.80;44.80
13369;DHT22;6753;52.520;13.450;2023-04-07T00:56:26;18.80;44.60
13369;DHT22;6753;52.520;13.450;2023-04-07T00:56:37;18.90;44.70
13369;DHT22;6753;52.520;13.450;2023-04-07T00:56:48;18.90;45.00
13369;DHT22;6753;52.520;13.450;2023-04-07T00:56:59;18.90;45.00
13369;DHT22;6753;52.520;13.450;2023-04-07T00:57:11;18.80;44.90
13369;DHT22;6753;52.520;13.450;2023-04-07T00:57:22;18.90;45.40
13369;DHT22;6753;52.520;13.450;2023-04-07T00:57:33;18.90;45.50
13369;DHT22;6753;52.520;13.450;2023-04-07T00:57:43;18.90;45.40
13369;DHT22;6753;52.520;13.450;2023-04-07T00:57:56;18.90;45.20
13369;DHT22;6753;52.520;13.450;2023-04-07T00:58:06;18.90;45.10
13369;DHT22;6753;52.520;13.450;2023-04-07T00:58:17;20.10;46.70
13369;DHT22;6753;52.520;13.450;2023-04-07T00:58:28;18.90;45.00
13369;DHT22;6753;52.520;13.450;2023-04-07T00:58:40;20.20;46.90
13369;DHT22;6753;52.520;13.450;2023-04-07T00:58:51;18.90;45.10
13369;DHT22;6753;52.520;13.450;2023-04-07T00:59:03;18.90;45.00
13369;DHT22;6753;52.520;13.450;2023-04-07T00:59:14;18.90;44.90
13369;DHT22;6753;52.520;13.450;2023-04-07T00:59:25;18.90;45.00
13369;DHT22;6753;52.520;13.450;2023-04-07T00:59:36;18.90;45.50
13369;DHT22;6753;52.520;13.450;2023-04-07T00:59:47;18.90;45.80
13369;DHT22;6753;52.520;13.450;2023-04-07T01:00:01;18.90;46.10
13369;DHT22;6753;52.520;13.450;2023-04-07T01:00:12;18.90;46.00
13369;DHT22;6753;52.520;13.450;2023-04-07T01:00:23;18.90;46.00
13369;DHT22;6753;52.520;13.450;2023-04-07T01:00:40;19.00;46.10
13369;DHT22;6753;52.520;13.450;2023-04-07T01:00:58;18.90;46.10
13369;DHT22;6753;52.520;13.450;2023-04-07T01:01:15;18.90;46.00
13369;DHT22;6753;52.520;13.450;2023-04-07T01:01:31;19.90;47.40
13369;DHT22;6753;52.520;13.450;2023-04-07T01:01:50;18.90;46.10
13369;DHT22;6753;52.520;13.450;2023-04-07T01:02:09;18.90;46.40
13369;DHT22;6753;52.520;13.450;2023-04-07T01:02:24;19.00;46.50
13369;DHT22;6753;52.520;13.450;2023-04-07T01:02:41;20.20;48.30
13369;DHT22;6753;52.520;13.450;2023-04-07T01:02:57;18.90;46.40
13369;DHT22;6753;52.520;13.450;2023-04-07T01:03:12;18.90;46.30
13369;DHT22;6753;52.520;13.450;2023-04-07T01:03:30;18.90;46.30
13369;DHT22;6753;52.520;13.450;2023-04-07T01:03:45;21.30;49.60
13369;DHT22;6753;52.520;13.450;2023-04-07T01:04:08;19.00;46.20
13369;DHT22;6753;52.520;13.450;2023-04-07T01:04:26;19.00;46.30
13369;DHT22;6753;52.520;13.450;2023-04-07T01:04:44;19.00;46.50
13369;DHT22;6753;52.520;13.450;2023-04-07T01:05:04;18.90;46.30
13369;DHT22;6753;52.520;13.450;2023-04-07T01:05:22;20.70;48.90
13369;DHT22;6753;52.520;13.450;2023-04-07T01:05:41;19.00;46.40
13369;DHT22;6753;52.520;13.450;2023-04-07T01:05:55;19.00;46.30
13369;DHT22;6753;52.520;13.450;2023-04-07T01:06:07;19.00;46.10
13369;DHT22;6753;52.520;13.450;2023-04-07T01:06:25;19.00;46.10
13369;DHT22;6753;52.520;13.450;2023-04-07T01:06:43;19.00;46.40
13369;DHT22;6753;52.520;13.450;2023-04-07T01:07:03;19.00;46.40
13369;DHT22;6753;52.520;13.450;2023-04-07T01:07:17;19.00;46.20
13369;DHT22;6753;52.520;13.450;2023-04-07T01:07:34;19.00;46.10
13369;DHT22;6753;52.520;13.450;2023-04-07T01:07:51;19.00;46.10
13369;DHT22;6753;52.520;13.450;2023-04-07T01:08:10;19.00;46.10
13369;DHT22;6753;52.520;13.450;2023-04-07T01:08:29;19.00;46.10
13369;DHT22;6753;52.520;13.450;2023-04-07T01:08:47;21.30;49.40
13369;DHT22;6753;52.520;13.450;2023-04-07T01:09:02;19.00;46.40
13369;DHT22;6753;52.520;13.450;2023-04-07T01:09:19;19.00;46.30
13369;DHT22;6753;52.520;13.450;2023-04-07T01:09:36;19.00;46.50
13369;DHT22;6753;52.520;13.450;2023-04-07T01:10:02;19.00;46.50
13369;DHT22;6753;52.520;13.450;2023-04-07T01:10:18;19.00;46.50
13369;DHT22;6753;52.520;13.450;2023-04-07T01:10:36;19.00;46.60
13369;DHT22;6753;52.520;13.450;2023-04-07T01:10:51;19.00;46.50
13369;DHT22;6753;52.520;13.450;2023-04-07T01:11:07;19.00;46.40
13369;DHT22;6753;52.520;13.450;2023-04-07T01:11:24;20.60;48.60
13369;DHT22;6753;52.520;13.450;2023-04-07T01:11:41;19.00;46.30
13369;DHT22;6753;52.520;13.450;2023-04-07T01:11:58;20.20;48.20
13369;DHT22;6753;52.520;13.450;2023-04-07T01:12:22;20.30;48.20
13369;DHT22;6753;52.520;13.450;2023-04-07T01:13:07;21.20;49.50
13369;DHT22;6753;52.520;13.450;2023-04-07T01:13:22;20.40;48.60
13369;DHT22;6753;52.520;13.450;2023-04-07T01:13:41;19.10;47.10
13369;DHT22;6753;52.520;13.450;2023-04-07T01:13:54;19.00;47.30
13369;DHT22;6753;52.520;13.450;2023-04-07T01:14:09;19.10;47.20
13369;DHT22;6753;52.520;13.450;2023-04-07T01:14:22;19.00;46.90
13369;DHT22;6753;52.520;13.450;2023-04-07T01:14:40;20.40;49.30
13369;DHT22;6753;52.520;13.450;2023-04-07T01:14:57;19.10;47.30
13369;DHT22;6753;52.520;13.450;2023-04-07T01:15:11;19.10;47.10
13369;DHT22;6753;52.520;13.450;2023-04-07T01:15:24;19.10;47.00
13369;DHT22;6753;52.520;13.450;2023-04-07T01:15:38;19.10;47.00
13369;DHT22;6753;52.520;13.450;2023-04-07T01:15:51;19.10;46.90
13369;DHT22;6753;52.520;13.450;2023-04-07T01:16:14;19.10;46.90